Pagrindinis puslapis
METAR-TAF:

METAR-TAF

Oro uostai :

Khadžurahas, Indija

platuma: 24-49-02N, ilguma: 79-55-07E, Aukštis: 222 m

Dabartinis oras

Ataskaita buvo paskelbta 13 valandos ir 51 minutes, ne 12:00 UTC
Vėjas 4 kt iš Šiaurės Rytų
Temperatūra 25°C
Drėgmė 57%
Slėgis 1014 hPa
Matomumas: 6000 m

METAR: VEKO 211200Z 05004KT 6000 NSC 25/16 Q1014

Laikas: 07:21 (01:51 UTC)

Prognozė

Ataskaita buvo paskelbta 2 valandos ir 51 minutes, ne 23:00 UTC
Prognozė galioja nuo 22 metu 00 UTC su 22 metu 09 UTC
Vėjas 5 kt iš Šiaurės/Šiaurės Rytų
Matomumas: 1500 m
rūkana
Tapsmas
nuo 22 metu 04 UTC su 22 metu 06 UTC
Vėjas 5 kt iš Šiaurės Rytų
Matomumas: 3000 m
migla

TAF: VEKO 212300Z 2200/2209 02005KT 1500 BR NSC BECMG 2204/2206 05005KT 3000 HZ NSC

Orai ataskaitas ir orų prognozės (METAR, TAF).

turimą stotys yra geltonos ir raudonos taškus žemėlapyje.

Perkelti pele per norėdami pamatyti stoties vardą.

Tada spustelėkite, norėdami matyti oro stebėjimo ir prognozės.

Norėdami pakeisti žemėlapį: spustelėkite ant žalios mygtukų su juodo kryžiaus žemyn,; žalią mygtuką su brūkšneliu, jei norite nutolinti; arba žalių rodyklių gretimoms žemėlapius.


METAR-TAF: